Time;durP1;ratioP1;P1;durP2;ratioP2;P2;SDS_P1;SDS_P2;PMS_P1;PMS_P2;Temp;Humidity;BMP_temperature;BMP_pressure;BME280_temperature;BME280_humidity;BME280_pressure;Samples;Min_cycle;Max_cycle;Signal;HPM_P1;HPM_P2
2022/02/22 00:02:14;;;;;;;19.00;6.53;;;9.50;1.00;;;;;;5110525;28;20209;-77
2022/02/22 00:04:43;;;;;;;27.07;6.67;;;9.50;1.00;;;;;;5113148;28;20236;-76
2022/02/22 00:07:11;;;;;;;22.20;6.03;;;9.60;1.00;;;;;;5113979;27;20205;-77
2022/02/22 00:09:38;;;;;;;27.97;6.17;;;9.60;1.00;;;;;;5114409;28;20205;-77
2022/02/22 00:12:07;;;;;;;22.93;5.00;;;9.60;1.00;;;;;;5114118;28;20197;-75
2022/02/22 00:14:34;;;;;;;17.00;5.67;;;9.60;1.00;;;;;;5114211;28;20200;-79
2022/02/22 00:17:01;;;;;;;27.07;7.53;;;9.60;1.00;;;;;;5113863;28;20205;-77
2022/02/22 00:19:29;;;;;;;19.07;6.70;;;9.70;1.00;;;;;;5114034;28;20700;-77
2022/02/22 00:21:56;;;;;;;21.53;5.83;;;9.60;1.00;;;;;;5114019;28;20277;-78
2022/02/22 00:24:24;;;;;;;17.87;5.60;;;9.60;1.00;;;;;;5113695;28;20669;-78
2022/02/22 00:26:51;;;;;;;21.00;6.00;;;9.60;1.00;;;;;;5114341;27;20205;-78
2022/02/22 00:29:18;;;;;;;22.43;7.23;;;9.60;1.00;;;;;;5113994;28;20201;-78
2022/02/22 00:31:45;;;;;;;27.57;5.70;;;9.60;1.00;;;;;;5113804;28;20205;-79
2022/02/22 00:34:12;;;;;;;21.10;6.00;;;9.50;1.00;;;;;;5113547;28;20250;-80
2022/02/22 00:36:42;;;;;;;20.90;6.97;;;9.50;1.00;;;;;;5113749;28;20273;-81
2022/02/22 00:39:09;;;;;;;22.60;5.97;;;9.50;1.00;;;;;;5113390;28;20320;-77
2022/02/22 00:41:36;;;;;;;23.87;6.30;;;9.40;1.00;;;;;;5113969;27;20201;-77
2022/02/22 00:44:03;;;;;;;26.90;6.13;;;9.40;1.00;;;;;;5113339;28;20555;-79
2022/02/22 00:46:31;;;;;;;19.70;6.73;;;9.30;1.00;;;;;;5113710;27;20262;-76
2022/02/22 00:48:58;;;;;;;27.53;6.60;;;9.30;1.00;;;;;;5112962;28;20249;-77
2022/02/22 00:51:25;;;;;;;30.30;7.30;;;9.10;1.00;;;;;;5113536;27;20200;-75
2022/02/22 00:53:54;;;;;;;18.77;6.50;;;9.10;1.00;;;;;;5113198;28;20205;-75
2022/02/22 00:56:22;;;;;;;25.80;6.70;;;9.10;1.00;;;;;;5113629;28;20698;-74
2022/02/22 00:58:49;;;;;;;24.00;7.40;;;9.00;1.00;;;;;;5113656;27;20228;-78
2022/02/22 01:01:17;;;;;;;23.47;8.00;;;9.00;1.00;;;;;;5112579;28;20204;-77
2022/02/22 01:03:44;;;;;;;25.87;6.90;;;9.00;1.00;;;;;;5113259;28;20273;-77
2022/02/22 01:06:11;;;;;;;28.93;10.90;;;9.00;1.00;;;;;;5112983;28;20254;-76
2022/02/22 01:08:38;;;;;;;21.60;6.30;;;9.00;1.00;;;;;;5113164;28;20204;-77
2022/02/22 01:11:07;;;;;;;20.97;6.60;;;9.10;1.00;;;;;;5112964;28;20200;-77
2022/02/22 01:13:34;;;;;;;18.33;5.50;;;9.10;1.00;;;;;;5113195;28;20616;-84
2022/02/22 01:16:01;;;;;;;24.67;6.40;;;9.10;1.00;;;;;;5113300;28;20197;-83
2022/02/22 01:18:28;;;;;;;36.30;7.63;;;9.10;1.00;;;;;;5113622;28;20250;-83
2022/02/22 01:20:55;;;;;;;25.27;5.77;;;9.00;1.00;;;;;;5113271;28;20254;-83
2022/02/22 01:23:22;;;;;;;23.80;6.40;;;9.10;1.00;;;;;;5112774;28;20617;-77
2022/02/22 01:25:50;;;;;;;32.47;7.03;;;9.10;1.00;;;;;;5113349;28;20208;-79
2022/02/22 01:28:18;;;;;;;23.23;5.90;;;9.10;1.00;;;;;;5112792;28;20207;-80
2022/02/22 01:30:45;;;;;;;20.20;5.27;;;9.00;1.00;;;;;;5112800;28;20205;-82
2022/02/22 01:33:12;;;;;;;27.00;6.70;;;9.00;1.00;;;;;;5112625;28;20200;-82
2022/02/22 01:35:39;;;;;;;25.60;6.23;;;8.90;1.00;;;;;;5113003;28;20261;-82
2022/02/22 01:38:06;;;;;;;32.57;9.40;;;8.90;1.00;;;;;;5112373;28;20197;-82
2022/02/22 01:40:34;;;;;;;22.20;6.67;;;8.80;1.00;;;;;;5113079;28;20635;-78
2022/02/22 01:43:01;;;;;;;23.37;6.30;;;8.80;1.00;;;;;;5112400;28;20626;-78
2022/02/22 01:45:29;;;;;;;29.20;9.17;;;8.80;1.00;;;;;;5112740;28;20216;-81
2022/02/22 01:47:56;;;;;;;22.93;7.33;;;8.80;1.00;;;;;;5112233;28;20204;-77
2022/02/22 01:50:23;;;;;;;25.63;7.07;;;8.70;1.00;;;;;;5112322;28;20252;-77
2022/02/22 01:52:50;;;;;;;20.23;6.37;;;8.80;1.00;;;;;;5112754;28;20221;-78
2022/02/22 01:55:17;;;;;;;22.43;5.93;;;8.80;1.00;;;;;;5112254;28;20604;-78
2022/02/22 01:57:45;;;;;;;17.77;6.53;;;8.80;1.00;;;;;;5112199;28;20201;-78
2022/02/22 02:00:15;;;;;;;20.17;6.13;;;8.80;1.00;;;;;;5111821;28;20243;-78
2022/02/22 02:02:43;;;;;;;16.20;5.20;;;8.90;1.00;;;;;;5112319;28;20209;-73
2022/02/22 02:05:10;;;;;;;29.83;7.20;;;8.90;1.00;;;;;;5111541;28;20205;-76
2022/02/22 02:07:37;;;;;;;26.80;7.23;;;8.90;1.00;;;;;;5111969;28;20280;-79
2022/02/22 02:10:05;;;;;;;25.40;7.00;;;8.90;1.00;;;;;;5111799;28;20205;-84
2022/02/22 02:12:36;;;;;;;20.77;6.53;;;8.90;1.00;;;;;;5111894;28;20209;-81
2022/02/22 02:15:04;;;;;;;20.03;6.10;;;8.90;1.00;;;;;;5111668;27;20240;-81
2022/02/22 02:17:34;;;;;;;17.90;5.00;;;8.90;1.00;;;;;;5112082;28;20234;-83
2022/02/22 02:20:03;;;;;;;21.33;6.03;;;8.90;1.00;;;;;;5111590;28;20315;-83
2022/02/22 02:22:31;;;;;;;20.00;7.17;;;8.90;1.00;;;;;;5112363;28;20228;-83
2022/02/22 02:24:58;;;;;;;29.53;6.63;;;8.90;1.00;;;;;;5111487;28;20201;-84
2022/02/22 02:27:25;;;;;;;22.13;5.10;;;8.90;1.00;;;;;;5101972;28;20205;-85
2022/02/22 02:29:55;;;;;;;20.87;5.70;;;8.80;1.00;;;;;;5091906;28;20206;-70
2022/02/22 02:32:22;;;;;;;21.40;5.83;;;8.80;1.00;;;;;;5091753;28;20252;-70
2022/02/22 02:34:49;;;;;;;29.97;7.43;;;8.80;1.00;;;;;;5091636;28;20247;-81
2022/02/22 02:37:16;;;;;;;28.87;6.10;;;8.80;1.00;;;;;;5090893;28;20210;-78
2022/02/22 02:39:45;;;;;;;18.83;5.60;;;8.70;1.00;;;;;;5091384;28;20647;-79
2022/02/22 02:42:16;;;;;;;17.13;6.87;;;8.70;1.00;;;;;;5091209;28;20545;-81
2022/02/22 02:44:43;;;;;;;34.30;7.67;;;8.50;1.00;;;;;;5091074;28;20205;-75
2022/02/22 02:47:10;;;;;;;18.13;5.93;;;8.50;1.00;;;;;;5090963;28;20209;-80
2022/02/22 02:49:38;;;;;;;33.83;11.97;;;8.40;1.00;;;;;;5090908;28;20244;-79
2022/02/22 02:52:06;;;;;;;20.63;5.80;;;8.40;1.00;;;;;;5090675;28;20208;-82
2022/02/22 02:54:33;;;;;;;22.17;6.03;;;8.40;1.00;;;;;;5090842;28;20270;-80
2022/02/22 02:57:01;;;;;;;21.70;6.17;;;8.30;1.00;;;;;;5090952;28;20587;-81
2022/02/22 02:59:28;;;;;;;26.13;7.93;;;8.40;1.00;;;;;;5091131;28;20221;-81
2022/02/22 03:01:55;;;;;;;27.10;6.77;;;8.40;1.00;;;;;;5090825;28;20251;-81
2022/02/22 03:04:22;;;;;;;24.93;6.87;;;8.40;1.00;;;;;;5091036;28;20205;-70
2022/02/22 03:06:49;;;;;;;21.60;6.40;;;8.40;1.00;;;;;;5091721;28;20275;-84
2022/02/22 03:09:17;;;;;;;20.10;6.63;;;8.40;1.00;;;;;;5090636;28;20673;-80
2022/02/22 03:11:44;;;;;;;23.10;8.20;;;8.40;1.00;;;;;;5090694;28;20205;-81
2022/02/22 03:14:12;;;;;;;24.10;6.53;;;8.40;1.00;;;;;;5090804;28;20247;-80
2022/02/22 03:16:39;;;;;;;28.83;8.10;;;8.50;1.00;;;;;;5090878;28;20197;-82
2022/02/22 03:19:06;;;;;;;28.07;6.67;;;8.50;1.00;;;;;;5090312;28;20206;-80
2022/02/22 03:21:34;;;;;;;24.63;8.13;;;8.50;1.00;;;;;;5090929;28;20198;-78
2022/02/22 03:24:02;;;;;;;27.23;8.93;;;8.50;1.00;;;;;;5090690;28;20255;-81
2022/02/22 03:26:29;;;;;;;30.63;7.67;;;8.60;1.00;;;;;;5090921;28;20197;-80
2022/02/22 03:28:58;;;;;;;21.27;6.07;;;8.60;1.00;;;;;;5090560;28;20259;-80
2022/02/22 03:31:27;;;;;;;29.30;7.17;;;8.70;1.00;;;;;;5090546;28;20284;-78
2022/02/22 03:33:53;;;;;;;20.40;6.27;;;8.70;1.00;;;;;;5090279;28;20573;-71
2022/02/22 03:36:21;;;;;;;19.60;6.73;;;8.60;1.00;;;;;;5091322;28;20267;-81
2022/02/22 03:38:49;;;;;;;23.57;6.53;;;8.60;1.00;;;;;;5092024;28;20201;-81
2022/02/22 03:41:16;;;;;;;21.40;7.17;;;8.60;1.00;;;;;;5094208;28;20233;-81
2022/02/22 03:43:44;;;;;;;23.83;7.70;;;8.50;1.00;;;;;;5094404;28;20558;-80
2022/02/22 03:46:11;;;;;;;20.97;7.23;;;8.60;1.00;;;;;;5094077;28;20201;-80
2022/02/22 03:48:40;;;;;;;24.40;5.73;;;8.50;1.00;;;;;;5094241;28;20201;-81
2022/02/22 03:51:07;;;;;;;27.03;6.33;;;8.50;1.00;;;;;;5093883;28;20669;-79
2022/02/22 03:53:34;;;;;;;21.67;6.93;;;8.50;1.00;;;;;;5094071;28;20262;-73
2022/02/22 03:56:01;;;;;;;18.43;6.90;;;8.40;1.00;;;;;;5094079;28;20255;-81
2022/02/22 03:58:29;;;;;;;24.83;5.63;;;8.40;1.00;;;;;;5094314;28;20227;-81
2022/02/22 04:00:56;;;;;;;29.90;7.60;;;8.30;1.00;;;;;;5093169;28;20569;-80
2022/02/22 04:03:23;;;;;;;26.67;7.93;;;8.40;1.00;;;;;;5094297;28;20205;-80
2022/02/22 04:05:51;;;;;;;24.77;7.57;;;8.30;1.00;;;;;;5094583;28;20201;-81
2022/02/22 04:08:18;;;;;;;19.60;5.57;;;8.30;1.00;;;;;;5094023;28;20627;-81
2022/02/22 04:10:45;;;;;;;27.63;6.80;;;8.40;1.00;;;;;;5094341;28;20220;-80
2022/02/22 04:13:12;;;;;;;23.07;8.90;;;8.40;1.00;;;;;;5094900;28;20201;-83
2022/02/22 04:15:39;;;;;;;19.53;6.30;;;8.40;1.00;;;;;;5094419;28;20235;-83
2022/02/22 04:18:06;;;;;;;27.70;7.23;;;8.30;1.00;;;;;;5094182;28;20202;-82
2022/02/22 04:20:34;;;;;;;28.93;8.43;;;8.30;1.00;;;;;;5093879;28;20302;-78
2022/02/22 04:23:02;;;;;;;30.10;6.97;;;8.40;1.00;;;;;;5093310;28;20302;-77
2022/02/22 04:25:29;;;;;;;23.90;6.37;;;8.30;1.00;;;;;;5093802;28;20258;-82
2022/02/22 04:27:56;;;;;;;32.53;9.13;;;8.20;1.00;;;;;;5093248;28;20565;-80
2022/02/22 04:30:23;;;;;;;27.83;7.73;;;8.10;1.00;;;;;;5093473;28;20676;-75
2022/02/22 04:32:50;;;;;;;22.03;7.70;;;8.00;1.00;;;;;;5093946;28;20709;-79
2022/02/22 04:35:17;;;;;;;23.50;5.87;;;8.00;1.00;;;;;;5093555;28;20618;-70
2022/02/22 04:37:44;;;;;;;25.63;6.27;;;8.00;1.00;;;;;;5093549;28;20256;-82
2022/02/22 04:40:13;;;;;;;22.33;5.90;;;8.00;1.00;;;;;;5092745;28;20704;-82
2022/02/22 04:42:40;;;;;;;23.43;6.80;;;7.90;1.00;;;;;;5093583;28;20266;-81
2022/02/22 04:45:08;;;;;;;29.63;7.87;;;8.00;1.00;;;;;;5093113;28;20202;-81
2022/02/22 04:47:35;;;;;;;29.07;7.50;;;8.00;1.00;;;;;;5093354;28;20212;-80
2022/02/22 04:50:02;;;;;;;19.37;8.23;;;8.00;1.00;;;;;;5092830;28;20726;-82
2022/02/22 04:52:29;;;;;;;28.47;8.43;;;8.00;1.00;;;;;;5094355;28;20205;-79
2022/02/22 04:54:57;;;;;;;28.13;6.03;;;8.00;1.00;;;;;;5093164;28;20250;-83
2022/02/22 04:57:25;;;;;;;24.27;6.63;;;8.00;1.00;;;;;;5093853;28;20205;-84
2022/02/22 04:59:52;;;;;;;33.37;7.93;;;8.10;1.00;;;;;;5093052;28;20704;-70
2022/02/22 05:02:19;;;;;;;28.43;7.00;;;8.10;1.00;;;;;;5092634;28;20665;-75
2022/02/22 05:04:46;;;;;;;25.63;6.40;;;8.10;1.00;;;;;;5102075;28;20298;-78
2022/02/22 05:07:13;;;;;;;26.83;6.53;;;8.20;1.00;;;;;;5092552;28;20262;-79
2022/02/22 05:09:40;;;;;;;27.03;7.63;;;8.20;1.00;;;;;;5092527;28;20205;-79
2022/02/22 05:12:09;;;;;;;30.90;8.30;;;8.30;1.00;;;;;;5092612;28;20228;-80
2022/02/22 05:14:38;;;;;;;28.43;8.17;;;8.30;1.00;;;;;;5092628;28;20197;-79
2022/02/22 05:17:06;;;;;;;29.73;6.83;;;8.20;1.00;;;;;;5092432;28;20228;-78
2022/02/22 05:19:32;;;;;;;20.60;7.60;;;8.10;1.00;;;;;;5093917;28;20270;-73
2022/02/22 05:21:59;;;;;;;36.33;7.97;;;8.20;1.00;;;;;;5090950;28;20681;-77
2022/02/22 05:24:26;;;;;;;25.30;8.67;;;8.20;1.00;;;;;;5091950;28;20638;-75
2022/02/22 05:26:53;;;;;;;23.83;7.07;;;8.10;1.00;;;;;;5091814;28;20228;-73
2022/02/22 05:29:20;;;;;;;31.00;8.70;;;8.10;1.00;;;;;;5092001;28;20622;-78
2022/02/22 05:31:49;;;;;;;40.97;7.37;;;8.10;1.00;;;;;;5092178;28;20205;-79
2022/02/22 05:34:16;;;;;;;36.73;9.77;;;8.10;1.00;;;;;;5091188;28;20205;-77
2022/02/22 05:36:43;;;;;;;22.37;5.87;;;8.10;1.00;;;;;;5091632;28;20210;-79
2022/02/22 05:39:10;;;;;;;21.20;7.93;;;8.10;1.00;;;;;;5091403;28;20205;-77
2022/02/22 05:41:37;;;;;;;29.60;7.27;;;8.00;1.00;;;;;;5091974;28;20295;-80
2022/02/22 05:44:04;;;;;;;17.07;5.60;;;8.00;1.00;;;;;;5091004;28;20197;-80
2022/02/22 05:46:31;;;;;;;28.07;6.67;;;8.10;1.00;;;;;;5091394;28;20213;-81
2022/02/22 05:49:00;;;;;;;30.27;8.60;;;8.10;1.00;;;;;;5090611;28;20617;-75
2022/02/22 05:51:27;;;;;;;26.00;7.23;;;8.10;1.00;;;;;;5091526;28;20220;-80
2022/02/22 05:53:54;;;;;;;24.70;7.63;;;8.10;1.00;;;;;;5091342;28;20217;-72
2022/02/22 05:56:21;;;;;;;26.67;7.90;;;8.00;1.00;;;;;;5092043;28;20206;-77
2022/02/22 05:58:48;;;;;;;17.60;6.43;;;8.00;1.00;;;;;;5091975;28;20220;-76
2022/02/22 06:01:15;;;;;;;30.53;9.27;;;8.00;1.00;;;;;;5089895;28;20233;-77
2022/02/22 06:03:42;;;;;;;17.90;5.70;;;8.00;1.00;;;;;;5091291;28;20259;-78
2022/02/22 06:06:10;;;;;;;22.77;5.97;;;7.90;1.00;;;;;;5091517;28;20209;-77
2022/02/22 06:08:37;;;;;;;29.30;8.10;;;7.90;1.00;;;;;;5091691;28;20251;-77
2022/02/22 06:11:04;;;;;;;23.53;7.60;;;7.80;1.00;;;;;;5091145;28;20200;-77
2022/02/22 06:13:31;;;;;;;23.40;7.00;;;7.80;1.00;;;;;;5091156;28;20259;-77
2022/02/22 06:15:58;;;;;;;31.77;6.60;;;7.70;1.00;;;;;;5090866;28;20270;-75
2022/02/22 06:18:25;;;;;;;23.67;6.47;;;7.60;1.00;;;;;;5095505;28;20204;-79
2022/02/22 06:20:52;;;;;;;24.03;5.83;;;7.50;1.00;;;;;;5101048;28;20224;-80
2022/02/22 06:23:20;;;;;;;24.07;6.37;;;7.60;1.00;;;;;;5103302;28;20201;-80
2022/02/22 06:25:47;;;;;;;30.23;6.37;;;7.50;1.00;;;;;;5104812;28;20204;-79
2022/02/22 06:28:14;;;;;;;24.27;6.70;;;7.50;1.00;;;;;;5107724;28;20208;-80
2022/02/22 06:30:41;;;;;;;23.50;8.07;;;7.40;1.00;;;;;;5096202;28;20210;-79
2022/02/22 06:33:08;;;;;;;33.63;7.77;;;7.40;1.00;;;;;;5091023;28;20201;-79
2022/02/22 06:35:35;;;;;;;37.43;7.73;;;7.40;1.00;;;;;;5091545;28;20197;-77
2022/02/22 06:38:02;;;;;;;28.70;7.33;;;7.50;1.00;;;;;;5091510;28;20202;-87
2022/02/22 06:40:31;;;;;;;23.23;6.93;;;7.40;1.00;;;;;;5091525;28;20229;-82
2022/02/22 06:42:58;;;;;;;24.67;7.03;;;7.40;1.00;;;;;;5091275;28;20198;-82
2022/02/22 06:45:25;;;;;;;23.00;8.17;;;7.40;1.00;;;;;;5091607;28;20665;-82
2022/02/22 06:47:52;;;;;;;23.20;7.37;;;7.40;1.00;;;;;;5085563;28;20211;-74
2022/02/22 06:50:19;;;;;;;29.07;6.77;;;7.50;1.00;;;;;;5071093;28;20739;-77
2022/02/22 06:52:47;;;;;;;23.00;6.63;;;7.50;1.00;;;;;;5070345;28;20214;-78
2022/02/22 06:55:15;;;;;;;29.73;6.93;;;7.60;1.00;;;;;;5070156;28;20202;-76
2022/02/22 06:57:48;;;;;;;25.73;6.83;;;7.60;1.00;;;;;;5070860;28;20212;-70
2022/02/22 07:00:18;;;;;;;27.27;7.43;;;7.60;1.00;;;;;;5084306;28;20201;-77
2022/02/22 07:02:45;;;;;;;24.00;5.83;;;7.60;1.00;;;;;;5070898;28;20234;-78
2022/02/22 07:05:12;;;;;;;23.07;6.33;;;7.60;1.00;;;;;;5083003;28;20206;-77
2022/02/22 07:07:39;;;;;;;26.10;6.90;;;7.70;1.00;;;;;;5089500;28;20738;-77
2022/02/22 07:10:08;;;;;;;29.13;6.57;;;7.80;1.00;;;;;;5088662;28;20758;-74
2022/02/22 07:12:35;;;;;;;27.33;7.37;;;7.80;1.00;;;;;;5087620;28;20267;-70
2022/02/22 07:15:04;;;;;;;17.23;6.53;;;7.70;1.00;;;;;;5090088;28;20569;-84
2022/02/22 07:17:31;;;;;;;24.50;6.30;;;7.70;1.00;;;;;;5094973;28;20235;-77
2022/02/22 07:19:58;;;;;;;19.50;6.73;;;7.70;1.00;;;;;;5094427;28;20201;-79
2022/02/22 07:22:25;;;;;;;24.73;7.67;;;7.70;1.00;;;;;;5094533;28;20263;-77
2022/02/22 07:24:52;;;;;;;27.47;7.17;;;7.70;1.00;;;;;;5094342;28;20297;-72
2022/02/22 07:27:19;;;;;;;28.37;7.33;;;7.80;1.00;;;;;;5095187;28;20220;-79
2022/02/22 07:29:46;;;;;;;25.10;6.17;;;7.90;1.00;;;;;;5094550;28;20198;-80
2022/02/22 07:32:15;;;;;;;17.23;6.80;;;8.00;1.00;;;;;;5094035;28;20206;-80
2022/02/22 07:34:42;;;;;;;25.83;7.57;;;8.20;1.00;;;;;;5094437;28;20221;-81
2022/02/22 07:37:09;;;;;;;23.27;6.10;;;8.40;1.00;;;;;;5093976;28;20198;-79
2022/02/22 07:39:36;;;;;;;19.97;6.47;;;8.50;1.00;;;;;;5094272;28;20205;-80
2022/02/22 07:42:04;;;;;;;18.17;6.13;;;8.70;1.00;;;;;;5094193;28;20306;-79
2022/02/22 07:44:31;;;;;;;24.87;8.10;;;8.90;1.00;;;;;;5094462;28;20254;-80
2022/02/22 07:46:58;;;;;;;24.63;6.10;;;9.00;1.00;;;;;;5093971;28;20198;-79
2022/02/22 07:49:26;;;;;;;23.13;6.17;;;9.30;1.00;;;;;;5093695;28;20259;-79
2022/02/22 07:51:53;;;;;;;26.03;7.90;;;9.40;1.00;;;;;;5094040;28;20231;-77
2022/02/22 07:54:20;;;;;;;21.73;7.17;;;9.90;1.00;;;;;;5094077;28;20209;-78
2022/02/22 07:56:47;;;;;;;25.77;6.03;;;10.50;1.00;;;;;;5093780;28;20209;-78
2022/02/22 07:59:14;;;;;;;24.27;6.80;;;11.00;1.00;;;;;;5099332;28;20625;-80
2022/02/22 08:01:41;;;;;;;31.30;8.50;;;11.20;1.00;;;;;;5110920;28;20655;-70
2022/02/22 08:04:08;;;;;;;24.23;7.83;;;11.30;1.00;;;;;;5106393;28;20664;-78
2022/02/22 08:06:36;;;;;;;18.47;5.10;;;11.00;1.00;;;;;;5100602;28;20209;-79
2022/02/22 08:09:03;;;;;;;25.00;7.67;;;10.60;1.00;;;;;;5089622;28;20731;-80
2022/02/22 08:11:31;;;;;;;29.10;6.67;;;10.20;1.00;;;;;;5086283;28;20256;-80
2022/02/22 08:13:59;;;;;;;28.10;8.10;;;10.10;1.00;;;;;;5086333;28;20201;-75
2022/02/22 08:16:27;;;;;;;20.50;6.33;;;10.00;1.00;;;;;;5087941;28;20212;-69
2022/02/22 08:18:54;;;;;;;17.33;5.00;;;10.10;1.00;;;;;;5092236;28;20672;-70
2022/02/22 08:21:21;;;;;;;28.80;6.23;;;10.30;1.00;;;;;;5091345;28;20233;-69
2022/02/22 08:23:50;;;;;;;19.67;6.10;;;10.50;1.00;;;;;;5092018;28;20198;-69
2022/02/22 08:26:18;;;;;;;21.10;5.97;;;10.30;1.00;;;;;;5092915;28;20281;-72
2022/02/22 08:28:46;;;;;;;24.50;5.70;;;10.30;1.00;;;;;;5093607;28;20237;-70
2022/02/22 08:31:14;;;;;;;18.77;5.80;;;10.30;1.00;;;;;;5093061;28;20202;-69
2022/02/22 08:33:41;;;;;;;22.73;5.93;;;10.50;1.00;;;;;;5093273;28;20258;-70
2022/02/22 08:36:09;;;;;;;26.50;8.53;;;10.90;1.00;;;;;;5093080;28;20272;-69
2022/02/22 08:38:36;;;;;;;29.33;6.57;;;11.10;1.00;;;;;;5092045;28;20664;-70
2022/02/22 08:41:05;;;;;;;21.50;6.33;;;11.20;1.00;;;;;;5092173;28;20298;-70
2022/02/22 08:43:32;;;;;;;23.27;6.50;;;11.50;1.00;;;;;;5093074;28;20205;-70
2022/02/22 08:46:00;;;;;;;26.50;6.67;;;11.30;1.00;;;;;;5092686;28;20698;-70
2022/02/22 08:48:27;;;;;;;29.60;7.70;;;11.40;1.00;;;;;;5093269;28;20205;-74
2022/02/22 08:50:54;;;;;;;30.60;8.93;;;12.60;1.00;;;;;;5085501;28;20626;-70
2022/02/22 08:53:21;;;;;;;22.23;5.97;;;13.10;1.00;;;;;;5087714;28;20210;-70
2022/02/22 08:55:48;;;;;;;21.33;6.87;;;12.50;1.00;;;;;;5092502;28;20198;-70
2022/02/22 08:58:17;;;;;;;32.57;7.97;;;11.90;1.00;;;;;;5092275;28;20202;-70
2022/02/22 09:00:44;;;;;;;25.73;6.67;;;11.80;1.00;;;;;;5092624;28;20209;-69
2022/02/22 09:03:11;;;;;;;32.13;6.23;;;11.80;1.00;;;;;;5092538;28;20205;-70
2022/02/22 09:05:38;;;;;;;19.10;5.57;;;11.80;1.00;;;;;;5092280;28;20746;-70
2022/02/22 09:08:06;;;;;;;18.23;6.47;;;11.80;1.00;;;;;;5092118;28;20623;-70
2022/02/22 09:10:34;;;;;;;17.50;6.20;;;11.90;1.00;;;;;;5092679;28;20611;-77
2022/02/22 09:13:00;;;;;;;24.40;7.47;;;12.30;1.00;;;;;;5092173;28;20237;-72
2022/02/22 09:15:31;;;;;;;27.58;6.95;;;12.50;1.00;;;;;;5092636;28;20633;-72
2022/02/22 09:17:59;;;;;;;15.20;5.63;;;12.60;1.00;;;;;;5090402;28;20206;-72
2022/02/22 09:20:26;;;;;;;22.65;5.00;;;13.00;1.00;;;;;;5092204;28;20576;-72
2022/02/22 09:22:53;;;;;;;19.70;6.70;;;12.70;1.00;;;;;;5092252;28;20646;-72
2022/02/22 09:25:21;;;;;;;16.55;6.22;;;12.30;1.00;;;;;;5092487;28;20208;-73
2022/02/22 09:27:48;;;;;;;19.10;5.43;;;12.40;1.00;;;;;;5092597;28;20202;-72
2022/02/22 09:30:16;;;;;;;18.00;5.28;;;12.80;1.00;;;;;;5092124;28;20278;-72
2022/02/22 09:32:46;;;;;;;19.35;6.35;;;12.90;1.00;;;;;;5092313;28;20273;-72
2022/02/22 09:35:15;;;;;;;17.77;5.80;;;12.90;1.00;;;;;;5091788;28;20202;-72
2022/02/22 09:37:42;;;;;;;20.80;5.45;;;12.90;1.00;;;;;;5091124;28;20213;-72
2022/02/22 09:40:11;;;;;;;22.88;5.25;;;12.40;1.00;;;;;;5091794;28;20201;-72
2022/02/22 09:42:38;;;;;;;18.83;5.60;;;13.20;1.00;;;;;;5091876;28;20233;-72
2022/02/22 09:45:08;;;;;;;22.67;5.78;;;13.90;1.00;;;;;;5091712;28;20661;-73
2022/02/22 09:47:35;;;;;;;17.35;5.82;;;13.20;1.00;;;;;;5092158;28;20284;-72
2022/02/22 09:50:04;;;;;;;15.18;4.55;;;13.10;1.00;;;;;;5091301;28;20251;-72
2022/02/22 09:52:31;;;;;;;20.00;5.78;;;13.70;1.00;;;;;;5091866;28;20630;-72
2022/02/22 09:54:58;;;;;;;22.13;5.88;;;13.80;1.00;;;;;;5090715;28;20266;-72
2022/02/22 09:57:25;;;;;;;19.17;5.88;;;14.50;1.00;;;;;;5091335;28;20198;-72
2022/02/22 09:59:53;;;;;;;18.25;5.45;;;15.50;1.00;;;;;;5091895;28;20205;-71
2022/02/22 10:02:20;;;;;;;16.05;5.03;;;16.60;1.00;;;;;;5091986;28;20228;-73
2022/02/22 10:04:48;;;;;;;18.40;5.53;;;17.80;1.00;;;;;;5091640;28;20251;-71
2022/02/22 10:07:17;;;;;;;20.65;6.10;;;16.00;1.00;;;;;;5091269;28;20312;-73
2022/02/22 10:09:54;;;;;;;20.95;5.22;;;18.40;1.00;;;;;;5091503;28;20661;-74
2022/02/22 10:12:29;;;;;;;14.43;5.05;;;19.50;1.00;;;;;;5091558;28;20740;-75
2022/02/22 10:14:58;;;;;;;15.15;4.75;;;20.60;1.00;;;;;;5091099;28;20205;-75
2022/02/22 10:17:25;;;;;;;18.30;4.63;;;20.20;1.00;;;;;;5091489;28;20289;-74
2022/02/22 10:20:01;;;;;;;17.65;5.50;;;19.60;1.00;;;;;;5091107;28;20202;-75
2022/02/22 10:22:30;;;;;;;14.50;6.30;;;19.60;1.00;;;;;;5091493;28;20240;-75
2022/02/22 10:25:05;;;;;;;13.73;5.55;;;22.40;1.00;;;;;;5090685;28;20621;-74
2022/02/22 10:27:45;;;;;;;20.83;7.35;;;20.40;1.00;;;;;;5091402;28;20278;-74
2022/02/22 10:30:29;;;;;;;15.65;4.75;;;18.60;1.00;;;;;;5090896;28;20634;-75
2022/02/22 10:32:56;;;;;;;14.57;4.13;;;16.20;1.00;;;;;;5090602;28;20213;-75
2022/02/22 10:35:31;;;;;;;22.20;5.70;;;15.30;1.00;;;;;;5091141;28;20251;-74
2022/02/22 10:38:00;;;;;;;17.55;5.28;;;15.40;1.00;;;;;;5090698;28;20201;-74
2022/02/22 10:40:29;;;;;;;18.17;5.80;;;14.80;1.00;;;;;;5091153;28;20201;-74
2022/02/22 10:42:56;;;;;;;14.82;5.32;;;14.40;1.00;;;;;;5090521;28;20225;-74
2022/02/22 10:45:24;;;;;;;14.13;4.65;;;13.90;1.00;;;;;;5091290;28;20205;-75
2022/02/22 10:47:55;;;;;;;21.30;6.25;;;13.60;1.00;;;;;;5090878;28;20201;-74
2022/02/22 10:50:28;;;;;;;19.27;5.15;;;13.70;1.00;;;;;;5091106;28;20692;-74
2022/02/22 10:52:56;;;;;;;17.67;4.45;;;13.80;1.00;;;;;;5090501;28;20748;-74
2022/02/22 10:55:24;;;;;;;14.50;4.07;;;13.80;1.00;;;;;;5090839;28;20727;-74
2022/02/22 10:57:53;;;;;;;12.65;4.85;;;13.30;1.00;;;;;;5091499;28;20329;-71
2022/02/22 11:00:21;;;;;;;24.42;5.28;;;13.10;1.00;;;;;;5090499;28;20266;-70
2022/02/22 11:02:48;;;;;;;16.33;5.57;;;13.50;1.00;;;;;;5090949;28;20244;-69
2022/02/22 11:05:15;;;;;;;27.17;6.47;;;13.20;1.00;;;;;;5090507;28;20251;-69
2022/02/22 11:07:50;;;;;;;24.90;6.25;;;12.90;1.00;;;;;;5090729;28;20209;-70
2022/02/22 11:10:19;;;;;;;25.30;6.75;;;12.80;1.00;;;;;;5087633;28;20204;-71
2022/02/22 11:12:55;;;;;;;15.02;4.15;;;12.90;1.00;;;;;;5100024;28;20209;-70
2022/02/22 11:15:33;;;;;;;23.48;5.30;;;13.10;1.00;;;;;;5103425;28;20250;-70
2022/02/22 11:18:15;;;;;;;15.32;4.50;;;13.40;1.00;;;;;;5110128;28;20715;-70
2022/02/22 11:20:42;;;;;;;16.02;6.15;;;13.50;1.00;;;;;;5110581;28;20638;-70
2022/02/22 11:23:11;;;;;;;15.25;4.80;;;13.30;1.00;;;;;;5110316;28;20228;-70
2022/02/22 11:25:38;;;;;;;14.80;4.00;;;13.20;1.00;;;;;;5110782;28;20228;-71
2022/02/22 11:28:08;;;;;;;17.73;5.20;;;13.00;1.00;;;;;;5107420;28;20243;-71
2022/02/22 11:30:36;;;;;;;23.38;6.53;;;13.30;1.00;;;;;;5111127;28;20205;-81
2022/02/22 11:33:08;;;;;;;11.48;4.30;;;13.60;1.00;;;;;;5100410;28;20646;-71
2022/02/22 11:35:46;;;;;;;17.60;5.43;;;14.00;1.00;;;;;;5092030;28;20216;-87
2022/02/22 11:38:14;;;;;;;17.10;4.05;;;14.90;1.00;;;;;;5077680;28;20665;-91
2022/02/22 11:40:42;;;;;;;18.33;4.82;;;15.10;1.00;;;;;;5091434;28;20197;-88
2022/02/22 11:43:13;;;;;;;21.23;4.57;;;14.70;1.00;;;;;;5084374;28;20222;-89
2022/02/22 11:45:41;;;;;;;14.95;4.10;;;14.40;1.00;;;;;;5089102;28;20717;-88
2022/02/22 11:48:16;;;;;;;11.88;4.00;;;14.40;1.00;;;;;;5089629;28;20233;-87
2022/02/22 11:50:44;;;;;;;13.45;3.67;;;14.60;1.00;;;;;;5072241;28;20229;-87
2022/02/22 11:53:13;;;;;;;22.02;4.47;;;14.60;1.00;;;;;;5077436;28;20767;-87
2022/02/22 11:55:41;;;;;;;10.95;4.30;;;14.60;1.00;;;;;;5091267;28;20198;-85
2022/02/22 11:58:16;;;;;;;14.45;4.65;;;14.70;1.00;;;;;;5091797;28;20209;-84
2022/02/22 12:00:45;;;;;;;11.13;4.53;;;14.90;1.00;;;;;;5089529;28;20214;-88
2022/02/22 12:03:13;;;;;;;11.00;3.70;;;15.20;1.00;;;;;;5085085;28;20229;-89
2022/02/22 12:05:43;;;;;;;18.33;3.78;;;15.20;1.00;;;;;;5094366;28;20205;-87
2022/02/22 12:08:19;;;;;;;10.73;4.07;;;14.80;1.00;;;;;;5094760;28;20202;-87
2022/02/22 12:10:48;;;;;;;15.75;4.18;;;14.70;1.00;;;;;;5094889;28;20266;-87
2022/02/22 12:13:18;;;;;;;15.55;4.03;;;14.80;1.00;;;;;;5094196;28;20217;-86
2022/02/22 12:15:46;;;;;;;14.43;4.53;;;15.20;1.00;;;;;;5090318;28;20259;-75
2022/02/22 12:18:15;;;;;;;11.50;4.10;;;14.50;1.00;;;;;;5093762;28;20282;-83
2022/02/22 12:20:43;;;;;;;19.65;4.60;;;14.30;1.00;;;;;;5103900;27;20220;-81
2022/02/22 12:23:16;;;;;;;14.82;4.22;;;14.30;1.00;;;;;;5114086;28;20277;-87
2022/02/22 12:25:44;;;;;;;17.02;3.60;;;14.80;1.00;;;;;;5100735;28;20209;-88
2022/02/22 12:28:11;;;;;;;11.27;4.03;;;14.70;1.00;;;;;;5094231;28;20297;-87
2022/02/22 12:30:41;;;;;;;11.32;3.50;;;14.70;1.00;;;;;;5093777;28;20210;-85
2022/02/22 12:33:08;;;;;;;18.20;4.18;;;14.40;1.00;;;;;;5093709;28;20262;-85
2022/02/22 12:35:37;;;;;;;15.82;4.35;;;14.00;1.00;;;;;;5094506;28;20263;-86
2022/02/22 12:38:13;;;;;;;19.23;5.30;;;13.60;1.00;;;;;;5093675;28;20722;-84
2022/02/22 12:40:40;;;;;;;15.60;4.13;;;13.80;1.00;;;;;;5093255;28;20213;-86
2022/02/22 12:43:09;;;;;;;12.07;3.50;;;13.70;1.00;;;;;;5103308;28;20274;-88
2022/02/22 12:45:40;;;;;;;13.18;3.85;;;14.20;1.00;;;;;;5096943;28;20259;-86
2022/02/22 12:48:08;;;;;;;15.18;4.65;;;14.80;1.00;;;;;;5099405;28;20235;-88
2022/02/22 12:50:37;;;;;;;13.98;4.30;;;14.40;1.00;;;;;;5113404;28;20259;-86
2022/02/22 12:53:04;;;;;;;12.02;3.88;;;14.30;1.00;;;;;;5092355;28;20214;-87
2022/02/22 12:55:31;;;;;;;20.30;5.22;;;14.20;1.00;;;;;;5094045;28;20270;-86
2022/02/22 12:58:09;;;;;;;8.38;3.08;;;14.10;1.00;;;;;;5097865;28;20205;-86